Time;durP1;ratioP1;P1;durP2;ratioP2;P2;SDS_P1;SDS_P2;PMS_P1;PMS_P2;Temp;Humidity;BMP_temperature;BMP_pressure;BME280_temperature;BME280_humidity;BME280_pressure;Samples;Min_cycle;Max_cycle;Signal;HPM_P1;HPM_P2
2021/01/06 00:01:32;;;;;;;39.75;15.48;;;;;;;2.49;100.00;101650.09;4959873;28;20043;-78
2021/01/06 00:03:58;;;;;;;39.83;15.32;;;;;;;2.50;100.00;101655.28;4958405;28;20041;-78
2021/01/06 00:06:27;;;;;;;38.97;16.42;;;;;;;2.52;100.00;101656.06;4957910;28;20096;-78
2021/01/06 00:08:52;;;;;;;36.78;15.90;;;;;;;2.51;100.00;101648.19;4958822;28;20039;-78
2021/01/06 00:11:18;;;;;;;36.95;15.73;;;;;;;2.54;100.00;101654.16;4957554;28;20107;-78
2021/01/06 00:13:46;;;;;;;35.78;14.90;;;;;;;2.52;100.00;101649.94;4958531;28;20126;-78
2021/01/06 00:16:12;;;;;;;40.38;17.30;;;;;;;2.56;100.00;101654.06;4958274;28;20038;-78
2021/01/06 00:18:38;;;;;;;33.40;14.25;;;;;;;2.56;100.00;101651.41;4958100;28;20031;-78
2021/01/06 00:21:03;;;;;;;37.80;14.70;;;;;;;2.53;100.00;101641.03;4944083;29;20028;-78
2021/01/06 00:23:29;;;;;;;38.13;15.32;;;;;;;2.54;100.00;101645.38;4957670;29;20448;-78
2021/01/06 00:25:54;;;;;;;40.45;16.05;;;;;;;2.56;100.00;101643.47;4956538;28;20379;-78
2021/01/06 00:28:21;;;;;;;35.92;14.55;;;;;;;2.56;100.00;101643.47;4957517;28;20416;-78
2021/01/06 00:30:52;;;;;;;38.03;14.15;;;;;;;2.53;100.00;101649.81;4957764;29;20154;-76
2021/01/06 00:33:24;;;;;;;33.13;14.02;;;;;;;2.51;100.00;101646.44;4957525;28;20042;-78
2021/01/06 00:35:56;;;;;;;38.28;14.93;;;;;;;2.54;100.00;101640.91;4972317;28;20039;-78
2021/01/06 00:38:21;;;;;;;37.53;17.17;;;;;;;2.52;100.00;101645.47;4956690;28;20035;-78
2021/01/06 00:40:47;;;;;;;33.22;15.27;;;;;;;2.53;100.00;101646.31;4956582;28;20054;-76
2021/01/06 00:43:15;;;;;;;32.05;14.02;;;;;;;2.57;100.00;101645.19;4972428;28;20051;-77
2021/01/06 00:45:41;;;;;;;37.30;14.38;;;;;;;2.52;100.00;101644.63;4956269;28;20027;-78
2021/01/06 00:48:07;;;;;;;35.20;14.93;;;;;;;2.55;100.00;101647.91;4971114;28;20188;-78
2021/01/06 00:50:33;;;;;;;33.45;14.73;;;;;;;2.55;100.00;101636.47;4956269;28;20307;-78
2021/01/06 00:53:00;;;;;;;36.35;15.13;;;;;;;2.56;100.00;101638.16;4956462;28;20043;-77
2021/01/06 00:55:26;;;;;;;33.42;15.52;;;;;;;2.57;100.00;101639.91;4955724;28;20053;-78
2021/01/06 00:57:51;;;;;;;32.55;14.32;;;;;;;2.56;100.00;101643.47;4970945;28;20556;-78
2021/01/06 01:00:20;;;;;;;35.15;15.18;;;;;;;2.56;100.00;101643.47;4970925;28;20066;-76
2021/01/06 01:02:50;;;;;;;31.48;13.88;;;;;;;2.57;100.00;101637.25;4955860;28;20039;-78
2021/01/06 01:05:19;;;;;;;33.30;13.85;;;;;;;2.57;100.00;101643.38;4970319;28;20035;-78
2021/01/06 01:07:45;;;;;;;36.85;15.38;;;;;;;2.58;100.00;101638.94;4954749;28;20678;-78
2021/01/06 01:10:22;;;;;;;36.15;14.52;;;;;;;2.59;100.00;101640.63;4955652;28;20121;-78
2021/01/06 01:12:51;;;;;;;34.65;15.93;;;;;;;2.57;100.00;101639.91;4955162;28;20036;-78
2021/01/06 01:15:18;;;;;;;33.58;14.15;;;;;;;2.58;100.00;101641.59;4953973;28;20046;-78
2021/01/06 01:17:44;;;;;;;36.33;14.60;;;;;;;2.58;100.00;101633.66;4954655;28;20078;-77
2021/01/06 01:20:10;;;;;;;36.25;14.73;;;;;;;2.57;100.00;101637.25;4953348;28;20170;-78
2021/01/06 01:22:36;;;;;;;36.40;15.50;;;;;;;2.59;100.00;101635.34;4953559;28;20449;-77
2021/01/06 01:25:01;;;;;;;34.90;14.95;;;;;;;2.59;100.00;101633.53;4954319;28;20035;-78
2021/01/06 01:27:27;;;;;;;40.03;15.50;;;;;;;2.58;100.00;101646.88;4953438;28;20074;-77
2021/01/06 01:29:52;;;;;;;35.47;15.02;;;;;;;2.57;100.00;101645.19;4968806;28;20040;-78
2021/01/06 01:32:18;;;;;;;35.33;15.27;;;;;;;2.59;100.00;101645.94;4953075;28;20143;-77
2021/01/06 01:34:43;;;;;;;37.97;16.50;;;;;;;2.60;100.00;101639.69;4952978;28;20035;-78
2021/01/06 01:37:09;;;;;;;38.60;16.45;;;;;;;2.63;100.00;101647.44;4968099;28;20388;-78
2021/01/06 01:39:34;;;;;;;36.90;15.43;;;;;;;2.58;100.00;101642.44;4946154;28;20039;-78
2021/01/06 01:41:59;;;;;;;35.15;14.75;;;;;;;2.63;100.00;101636.84;4952883;28;20473;-78
2021/01/06 01:44:28;;;;;;;40.08;15.70;;;;;;;2.63;100.00;101634.22;4956685;28;20043;-78
2021/01/06 01:47:05;;;;;;;33.33;14.57;;;;;;;2.66;100.00;101644.63;4958769;28;20046;-76
2021/01/06 01:49:43;;;;;;;37.47;15.50;;;;;;;2.68;100.00;101641.88;4959699;28;20039;-78
2021/01/06 01:52:21;;;;;;;38.13;15.52;;;;;;;2.68;100.00;101640.06;4959875;29;20066;-77
2021/01/06 01:54:47;;;;;;;42.55;15.63;;;;;;;2.68;100.00;101637.41;4974575;28;20042;-78
2021/01/06 01:57:19;;;;;;;38.55;16.42;;;;;;;2.69;100.00;101643.56;4957901;29;20031;-78
2021/01/06 01:59:53;;;;;;;38.35;14.77;;;;;;;2.71;100.00;101639.00;4959832;28;20031;-78
2021/01/06 02:02:29;;;;;;;50.63;16.52;;;;;;;2.68;100.00;101642.72;4959817;28;20489;-77
2021/01/06 02:04:58;;;;;;;41.55;17.20;;;;;;;2.69;100.00;101647.06;4959870;28;20114;-78
2021/01/06 02:07:27;;;;;;;45.53;16.92;;;;;;;2.71;100.00;101637.25;4954943;28;20350;-78
2021/01/06 02:10:12;;;;;;;39.22;16.15;;;;;;;2.72;100.00;101643.38;4959281;28;20019;-78
2021/01/06 02:12:47;;;;;;;43.83;17.02;;;;;;;2.71;100.00;101641.66;4959540;28;20094;-78
2021/01/06 02:15:25;;;;;;;37.55;15.45;;;;;;;2.71;100.00;101642.53;4974837;28;20489;-78
2021/01/06 02:17:50;;;;;;;45.58;16.45;;;;;;;2.75;100.00;101636.06;4959867;29;20043;-77
2021/01/06 02:20:21;;;;;;;40.05;16.65;;;;;;;2.73;100.00;101640.63;4959758;28;20077;-78
2021/01/06 02:22:55;;;;;;;40.45;16.08;;;;;;;2.75;100.00;101643.19;4959507;28;20041;-78
2021/01/06 02:25:32;;;;;;;40.15;16.02;;;;;;;2.77;100.00;101636.84;4960149;28;20500;-78
2021/01/06 02:28:00;;;;;;;42.80;15.95;;;;;;;2.78;100.00;101632.41;4962334;28;20031;-78
2021/01/06 02:30:36;;;;;;;42.80;16.05;;;;;;;2.81;100.00;101640.13;4963739;29;20031;-78
2021/01/06 02:33:07;;;;;;;41.10;16.08;;;;;;;2.79;100.00;101632.28;4961530;28;20035;-78
2021/01/06 02:35:32;;;;;;;43.78;16.58;;;;;;;2.79;100.00;101634.94;4963315;28;20602;-78
2021/01/06 02:37:58;;;;;;;43.50;17.85;;;;;;;2.80;100.00;101630.47;4963931;28;20078;-78
2021/01/06 02:40:25;;;;;;;41.95;16.25;;;;;;;2.84;100.00;101639.94;4956559;29;20110;-77
2021/01/06 02:42:52;;;;;;;40.17;15.02;;;;;;;2.84;100.00;101635.50;4963818;28;20047;-78
2021/01/06 02:45:19;;;;;;;40.22;16.58;;;;;;;2.83;100.00;101635.59;4964347;28;20039;-78
2021/01/06 02:47:49;;;;;;;42.17;16.63;;;;;;;2.82;100.00;101637.41;4962853;28;20062;-79
2021/01/06 02:50:19;;;;;;;41.63;16.50;;;;;;;2.85;100.00;101637.19;4963242;28;20035;-78
2021/01/06 02:52:51;;;;;;;39.20;15.65;;;;;;;2.87;100.00;101636.28;4977994;28;20035;-77
2021/01/06 02:55:18;;;;;;;43.42;16.40;;;;;;;2.87;100.00;101636.28;4962100;28;20042;-77
2021/01/06 02:57:46;;;;;;;44.17;17.08;;;;;;;2.87;100.00;101633.63;4962222;28;20059;-78
2021/01/06 03:00:16;;;;;;;43.53;15.63;;;;;;;2.87;100.00;101639.78;4962627;28;20051;-76
2021/01/06 03:02:43;;;;;;;45.30;16.10;;;;;;;2.88;100.00;101630.00;4962687;28;20374;-78
2021/01/06 03:05:19;;;;;;;44.70;16.55;;;;;;;2.87;100.00;101626.53;4962763;28;20032;-78
2021/01/06 03:07:46;;;;;;;42.72;16.35;;;;;;;2.89;100.00;101629.06;4961469;28;20027;-77
2021/01/06 03:10:17;;;;;;;51.92;16.75;;;;;;;2.89;100.00;101621.97;4962966;28;20035;-77
2021/01/06 03:12:44;;;;;;;45.28;17.05;;;;;;;2.89;100.00;101619.31;4977347;28;20039;-78
2021/01/06 03:15:12;;;;;;;42.85;16.42;;;;;;;2.90;100.00;101625.44;4962307;28;20027;-78
2021/01/06 03:17:37;;;;;;;41.35;15.93;;;;;;;2.91;100.00;101624.50;4962240;28;20039;-77
2021/01/06 03:20:10;;;;;;;45.22;17.27;;;;;;;2.92;100.00;101623.56;4956959;29;20051;-77
2021/01/06 03:22:40;;;;;;;42.03;16.83;;;;;;;2.92;100.00;101628.88;4955402;29;20509;-78
2021/01/06 03:25:11;;;;;;;48.17;17.75;;;;;;;2.93;100.00;101628.78;4977510;28;20042;-78
2021/01/06 03:27:40;;;;;;;43.15;16.80;;;;;;;2.93;100.00;101630.56;4961796;28;20031;-78
2021/01/06 03:30:10;;;;;;;44.67;16.73;;;;;;;2.91;100.00;101622.69;4962334;28;20067;-78
2021/01/06 03:32:48;;;;;;;43.92;17.42;;;;;;;2.92;100.00;101624.44;4975844;28;20361;-78
2021/01/06 03:35:26;;;;;;;43.05;17.08;;;;;;;2.89;100.00;101621.09;4977109;28;20034;-77
2021/01/06 03:37:57;;;;;;;44.28;16.55;;;;;;;2.88;100.00;101614.13;4959914;28;20035;-78
2021/01/06 03:40:30;;;;;;;48.08;16.85;;;;;;;2.88;100.00;101614.13;4962525;28;20027;-77
2021/01/06 03:42:56;;;;;;;46.58;15.95;;;;;;;2.87;100.00;101615.06;4961171;29;20037;-78
2021/01/06 03:45:27;;;;;;;47.30;16.90;;;;;;;2.86;100.00;101611.53;4961205;29;20039;-78
2021/01/06 03:48:00;;;;;;;43.53;17.55;;;;;;;2.86;100.00;101611.53;4959539;28;20078;-78
2021/01/06 03:50:33;;;;;;;41.90;16.35;;;;;;;2.88;100.00;101606.16;4959021;29;20339;-77
2021/01/06 03:53:05;;;;;;;44.28;15.27;;;;;;;2.85;100.00;101613.34;4976602;28;20034;-78
2021/01/06 03:55:44;;;;;;;40.05;16.55;;;;;;;2.88;100.00;101620.25;4961654;28;20027;-78
2021/01/06 03:58:34;;;;;;;37.15;14.38;;;;;;;2.84;100.00;101616.94;4960949;28;20507;-78
2021/01/06 04:01:07;;;;;;;33.63;14.20;;;;;;;2.77;100.00;101610.34;4961915;28;20054;-78
2021/01/06 04:03:45;;;;;;;35.85;13.48;;;;;;;2.79;100.00;101611.09;4961235;28;20129;-77
2021/01/06 04:06:13;;;;;;;31.65;12.60;;;;;;;2.76;100.00;101602.47;4974981;28;20031;-77
2021/01/06 04:08:45;;;;;;;28.40;10.93;;;;;;;2.76;100.00;101607.78;4961009;28;20039;-78
2021/01/06 04:11:16;;;;;;;32.13;13.23;;;;;;;2.70;100.00;101609.00;4961075;28;20031;-78
2021/01/06 04:13:42;;;;;;;36.63;14.32;;;;;;;2.69;100.00;101607.31;4961157;28;20110;-78
2021/01/06 04:16:07;;;;;;;34.83;13.43;;;;;;;2.71;100.00;101608.09;4961121;28;20074;-77
2021/01/06 04:18:33;;;;;;;33.42;13.30;;;;;;;2.71;100.00;101610.75;4960201;28;20115;-77
2021/01/06 04:21:03;;;;;;;38.92;13.65;;;;;;;2.74;100.00;101613.19;4976555;28;20508;-78
2021/01/06 04:23:29;;;;;;;34.35;13.77;;;;;;;2.73;100.00;101608.84;4948180;29;20039;-78
2021/01/06 04:25:54;;;;;;;33.67;12.82;;;;;;;2.73;100.00;101619.44;4960912;28;20066;-78
2021/01/06 04:28:24;;;;;;;33.15;13.40;;;;;;;2.70;100.00;101609.00;4959987;29;20019;-78
2021/01/06 04:30:51;;;;;;;36.40;14.43;;;;;;;2.71;100.00;101609.88;4960990;29;20503;-78
2021/01/06 04:33:19;;;;;;;37.90;13.60;;;;;;;2.71;100.00;101616.03;4960798;29;20035;-76
2021/01/06 04:35:46;;;;;;;35.17;13.00;;;;;;;2.70;100.00;101610.81;4960455;28;20452;-78
2021/01/06 04:38:22;;;;;;;35.78;13.52;;;;;;;2.71;100.00;101610.75;4959680;28;20122;-76
2021/01/06 04:40:52;;;;;;;33.65;14.05;;;;;;;2.71;100.00;101608.09;4971208;28;20481;-78
2021/01/06 04:43:32;;;;;;;34.50;13.77;;;;;;;2.69;100.00;101604.66;4974884;28;20452;-78
2021/01/06 04:46:18;;;;;;;39.35;14.75;;;;;;;2.68;100.00;101607.44;4975197;28;20477;-78
2021/01/06 04:48:57;;;;;;;39.83;14.43;;;;;;;2.68;100.00;101600.31;4959693;28;20031;-78
2021/01/06 04:51:31;;;;;;;44.30;15.45;;;;;;;2.69;100.00;101607.31;4960058;28;20090;-78
2021/01/06 04:54:14;;;;;;;38.27;13.87;;;;;;;2.68;100.00;101604.78;4959448;28;20031;-78
2021/01/06 04:56:57;;;;;;;42.83;16.13;;;;;;;2.71;100.00;101610.75;4958761;28;20031;-78
2021/01/06 04:59:44;;;;;;;40.72;15.27;;;;;;;2.70;100.00;101600.22;4949157;29;20058;-78
2021/01/06 05:02:43;;;;;;;40.38;14.32;;;;;;;2.69;100.00;101602.03;4960037;28;20027;-76
2021/01/06 05:05:44;;;;;;;47.35;15.65;;;;;;;2.69;100.00;101603.81;4959315;28;20070;-78
2021/01/06 05:08:27;;;;;;;38.38;15.10;;;;;;;2.68;100.00;101596.84;4968105;28;20027;-77
2021/01/06 05:11:00;;;;;;;42.30;15.95;;;;;;;2.72;100.00;101598.34;4949990;29;20090;-78
2021/01/06 05:13:36;;;;;;;44.58;15.68;;;;;;;2.69;100.00;101595.88;4960376;28;20049;-78
2021/01/06 05:16:07;;;;;;;;;;;;;;;2.69;100.00;101595.88;4960282;28;20031;-78
2021/01/06 05:18:33;;;;;;;40.10;15.65;;;;;;;2.73;100.00;101598.25;4975204;28;19911;-77
2021/01/06 05:20:59;;;;;;;46.00;15.65;;;;;;;2.74;100.00;101591.97;4947477;29;20031;-78
2021/01/06 05:23:28;;;;;;;42.00;15.68;;;;;;;2.75;100.00;101595.47;4960282;29;20038;-78
2021/01/06 05:25:56;;;;;;;40.83;15.30;;;;;;;2.76;100.00;101592.75;4960158;29;20023;-78
2021/01/06 05:28:24;;;;;;;43.80;15.82;;;;;;;2.76;100.00;101599.81;4961997;28;20038;-77
2021/01/06 05:30:54;;;;;;;36.55;14.50;;;;;;;2.77;100.00;101594.44;4959898;29;20114;-78
2021/01/06 05:33:26;;;;;;;39.33;15.68;;;;;;;2.77;100.00;101599.75;4960184;28;20424;-78
2021/01/06 05:35:51;;;;;;;45.30;16.83;;;;;;;2.75;100.00;101598.97;4974760;28;20046;-78
2021/01/06 05:38:17;;;;;;;44.88;16.30;;;;;;;2.78;100.00;101596.16;4959764;28;20034;-78
2021/01/06 05:40:43;;;;;;;41.45;15.30;;;;;;;2.78;100.00;101597.94;4959499;28;20034;-78
2021/01/06 05:43:22;;;;;;;45.38;17.08;;;;;;;2.79;100.00;101597.84;4975517;28;20046;-78
2021/01/06 05:45:52;;;;;;;47.45;16.35;;;;;;;2.80;100.00;101596.03;4959607;28;20043;-78
2021/01/06 05:48:23;;;;;;;42.47;15.15;;;;;;;2.76;100.00;101598.06;4959637;28;20050;-78
2021/01/06 05:51:10;;;;;;;47.38;17.52;;;;;;;2.75;100.00;101595.47;4959522;28;20467;-77
2021/01/06 05:53:43;;;;;;;50.05;17.98;;;;;;;2.75;100.00;101593.69;4959614;28;20145;-78
2021/01/06 05:56:59;;;;;;;41.42;16.13;;;;;;;2.77;100.00;101604.19;4957925;28;20046;-77
2021/01/06 05:59:36;;;;;;;38.42;15.75;;;;;;;2.78;100.00;101598.78;4960353;28;20027;-78
2021/01/06 06:02:01;;;;;;;45.40;15.82;;;;;;;2.76;100.00;101602.47;4960350;28;20023;-78
2021/01/06 06:04:37;;;;;;;38.25;14.77;;;;;;;2.76;100.00;101592.75;4961027;29;20134;-79
2021/01/06 06:07:12;;;;;;;43.70;17.02;;;;;;;2.76;100.00;101598.06;4971904;28;20058;-78
2021/01/06 06:09:59;;;;;;;42.88;15.88;;;;;;;2.79;100.00;101602.28;4954255;28;20075;-78
2021/01/06 06:12:27;;;;;;;39.10;14.68;;;;;;;2.77;100.00;101605.03;4950030;29;20305;-78
2021/01/06 06:15:05;;;;;;;42.13;16.58;;;;;;;2.77;100.00;101602.41;4975505;28;20057;-76
2021/01/06 06:18:08;;;;;;;42.15;15.82;;;;;;;2.77;100.00;101607.69;4959853;28;20094;-78
2021/01/06 06:20:40;;;;;;;45.40;14.68;;;;;;;2.75;100.00;101611.38;4974378;28;20035;-78
2021/01/06 06:23:16;;;;;;;50.08;17.17;;;;;;;2.76;100.00;101615.72;4960257;29;20039;-78
2021/01/06 06:25:59;;;;;;;45.35;15.57;;;;;;;2.80;100.00;101617.22;4959717;29;20043;-78
2021/01/06 06:28:30;;;;;;;46.03;15.27;;;;;;;2.75;100.00;101612.22;4947299;29;20019;-78
2021/01/06 06:31:00;;;;;;;39.65;15.55;;;;;;;2.75;100.00;101616.69;4959550;29;20036;-77
2021/01/06 06:33:32;;;;;;;38.35;14.50;;;;;;;2.71;100.00;101613.38;4960007;28;20031;-77
2021/01/06 06:36:01;;;;;;;40.67;16.13;;;;;;;2.72;100.00;101615.09;4974456;28;20039;-76
2021/01/06 06:38:37;;;;;;;41.47;14.63;;;;;;;2.75;100.00;101621.97;4959961;28;20030;-78
2021/01/06 06:41:06;;;;;;;38.13;13.10;;;;;;;2.76;100.00;101613.94;4959057;28;20054;-78
2021/01/06 06:43:32;;;;;;;38.83;14.90;;;;;;;2.75;100.00;101619.31;4959983;28;20043;-77
2021/01/06 06:46:11;;;;;;;36.13;14.85;;;;;;;2.70;100.00;101616.13;4959426;28;20039;-78
2021/01/06 06:49:00;;;;;;;40.65;16.27;;;;;;;2.66;100.00;101620.78;4974058;28;20587;-78
2021/01/06 06:51:38;;;;;;;41.15;15.27;;;;;;;2.65;100.00;101616.41;4974944;28;20090;-77
2021/01/06 06:54:26;;;;;;;40.65;16.65;;;;;;;2.59;100.00;101622.09;4959743;28;20512;-77
2021/01/06 06:56:56;;;;;;;43.08;16.48;;;;;;;2.60;100.00;101619.34;4957400;28;20023;-79
2021/01/06 06:59:27;;;;;;;45.85;16.30;;;;;;;2.59;100.00;101627.41;4960088;28;20055;-79
2021/01/06 07:01:59;;;;;;;45.22;17.15;;;;;;;2.48;100.00;101628.06;4958585;29;20027;-79
2021/01/06 07:04:47;;;;;;;43.45;16.85;;;;;;;2.56;100.00;101623.16;4959659;28;20493;-79
2021/01/06 07:07:31;;;;;;;44.03;16.40;;;;;;;2.56;100.00;101625.81;4957172;29;20043;-80
2021/01/06 07:09:59;;;;;;;48.40;16.45;;;;;;;2.55;100.00;101628.53;4958285;28;20063;-80
2021/01/06 07:12:25;;;;;;;43.97;16.55;;;;;;;2.58;100.00;101626.53;4959705;28;20039;-79
2021/01/06 07:14:54;;;;;;;41.95;15.65;;;;;;;2.58;100.00;101626.53;4962441;28;20046;-79
2021/01/06 07:17:32;;;;;;;42.28;16.08;;;;;;;2.54;100.00;101624.19;4961254;28;20122;-76
2021/01/06 07:20:08;;;;;;;44.17;16.27;;;;;;;2.51;100.00;101633.19;4962160;28;20108;-79
2021/01/06 07:22:40;;;;;;;41.75;16.48;;;;;;;2.53;100.00;101625.97;4962278;28;20047;-79
2021/01/06 07:25:14;;;;;;;48.83;17.10;;;;;;;2.53;100.00;101628.63;4948376;28;20054;-78
2021/01/06 07:27:39;;;;;;;41.72;15.48;;;;;;;2.49;100.00;101639.50;4962230;28;20094;-79
2021/01/06 07:30:08;;;;;;;44.65;17.85;;;;;;;2.46;100.00;101640.56;4961782;28;20572;-78
2021/01/06 07:32:42;;;;;;;43.85;15.48;;;;;;;2.49;100.00;101636.84;4976854;28;20031;-78
2021/01/06 07:35:19;;;;;;;46.92;15.88;;;;;;;2.47;100.00;101642.25;4962650;29;20064;-78
2021/01/06 07:37:47;;;;;;;42.33;15.73;;;;;;;2.45;100.00;101651.22;4961130;28;20032;-79
2021/01/06 07:40:15;;;;;;;39.03;14.23;;;;;;;2.44;100.00;101652.19;4969281;28;20039;-79
2021/01/06 07:42:46;;;;;;;41.28;16.27;;;;;;;2.43;100.00;101653.13;4953513;29;20051;-80
2021/01/06 07:45:16;;;;;;;36.00;14.18;;;;;;;2.43;100.00;101659.28;4960123;28;20034;-78
2021/01/06 07:47:51;;;;;;;49.10;17.52;;;;;;;2.43;100.00;101658.44;4959059;28;20043;-78
2021/01/06 07:50:21;;;;;;;46.72;16.98;;;;;;;2.45;100.00;101654.72;4959837;28;20031;-78
2021/01/06 07:52:55;;;;;;;44.63;15.25;;;;;;;2.44;100.00;101657.47;4958912;28;20042;-79
2021/01/06 07:55:32;;;;;;;41.22;15.35;;;;;;;2.45;100.00;101657.38;4958851;28;20027;-77
2021/01/06 07:58:05;;;;;;;38.88;14.63;;;;;;;2.46;100.00;101664.41;4959262;28;20041;-78
2021/01/06 08:00:39;;;;;;;49.33;16.30;;;;;;;2.39;100.00;101663.06;4957923;28;20030;-77
2021/01/06 08:03:21;;;;;;;50.38;18.02;;;;;;;2.47;100.00;101662.59;4959352;28;20054;-78
2021/01/06 08:05:55;;;;;;;39.58;15.82;;;;;;;2.43;100.00;101667.22;4959460;28;20030;-79
2021/01/06 08:08:23;;;;;;;47.40;16.63;;;;;;;2.47;100.00;101665.25;4959621;28;20500;-79
2021/01/06 08:10:50;;;;;;;42.80;17.15;;;;;;;2.50;100.00;101670.34;4958774;28;20051;-80
2021/01/06 08:13:29;;;;;;;46.50;18.73;;;;;;;2.49;100.00;101676.59;4958642;28;20492;-85
2021/01/06 08:16:05;;;;;;;47.17;17.73;;;;;;;2.50;100.00;101671.19;4959361;29;20031;-77
2021/01/06 08:18:35;;;;;;;44.60;17.02;;;;;;;2.49;100.00;101679.25;4958986;28;20035;-78
2021/01/06 08:21:06;;;;;;;45.42;17.23;;;;;;;2.50;100.00;101679.13;4945987;29;20469;-79
2021/01/06 08:23:47;;;;;;;45.65;16.95;;;;;;;2.46;100.00;101671.47;4947216;28;20062;-79
2021/01/06 08:26:18;;;;;;;42.15;16.08;;;;;;;2.43;100.00;101675.16;4959731;28;20031;-79
2021/01/06 08:28:43;;;;;;;45.28;16.70;;;;;;;2.38;100.00;101682.53;4959668;28;20039;-78
2021/01/06 08:31:15;;;;;;;46.70;16.73;;;;;;;2.32;100.00;101686.41;4958884;29;20035;-79
2021/01/06 08:33:53;;;;;;;45.47;17.92;;;;;;;2.30;100.00;101683.00;4958773;28;20093;-77
2021/01/06 08:36:29;;;;;;;47.42;16.88;;;;;;;2.33;100.00;101684.63;4959179;28;20165;-79
2021/01/06 08:39:18;;;;;;;50.13;18.85;;;;;;;2.33;100.00;101679.31;4959313;28;20575;-80
2021/01/06 08:41:46;;;;;;;47.00;18.13;;;;;;;2.32;100.00;101667.88;4948996;29;20046;-77
2021/01/06 08:44:28;;;;;;;51.35;18.10;;;;;;;2.34;100.00;101670.44;4959023;28;20035;-79
2021/01/06 08:46:56;;;;;;;56.83;19.73;;;;;;;2.36;100.00;101672.97;4958033;28;20042;-78
2021/01/06 08:49:27;;;;;;;60.83;20.63;;;;;;;2.41;100.00;101677.06;4958427;28;20082;-77
2021/01/06 08:51:56;;;;;;;50.40;18.52;;;;;;;2.43;100.00;101685.75;4959248;28;20031;-76
2021/01/06 08:54:30;;;;;;;49.17;19.50;;;;;;;2.44;100.00;101678.66;4961050;28;20042;-78
2021/01/06 08:57:20;;;;;;;54.35;21.00;;;;;;;2.46;100.00;101688.25;4960524;28;20031;-78
2021/01/06 08:59:45;;;;;;;54.90;17.75;;;;;;;2.51;100.00;101682.63;4974367;28;20114;-79
2021/01/06 09:02:21;;;;;;;50.75;18.23;;;;;;;2.50;100.00;101691.53;4958591;28;20066;-79
2021/01/06 09:04:47;;;;;;;44.70;18.17;;;;;;;2.49;100.00;101688.03;4959945;28;20043;-77
2021/01/06 09:07:18;;;;;;;46.30;18.17;;;;;;;2.53;100.00;101688.69;4959219;28;20041;-77
2021/01/06 09:09:59;;;;;;;46.20;19.15;;;;;;;2.54;100.00;101687.75;4959304;28;20367;-79
2021/01/06 09:12:41;;;;;;;47.90;19.23;;;;;;;2.52;100.00;101692.31;4947357;29;20118;-77
2021/01/06 09:15:20;;;;;;;50.35;18.08;;;;;;;2.55;100.00;101692.94;4960210;28;20037;-77
2021/01/06 09:17:59;;;;;;;48.50;17.05;;;;;;;2.54;100.00;101691.25;4958492;28;20038;-78
2021/01/06 09:20:37;;;;;;;44.55;18.00;;;;;;;2.49;100.00;101687.19;4946784;29;20421;-77
2021/01/06 09:23:05;;;;;;;47.50;18.00;;;;;;;2.53;100.00;101691.34;4955312;29;20043;-78
2021/01/06 09:25:31;;;;;;;43.83;17.95;;;;;;;2.59;100.00;101690.97;4958187;28;20035;-78
2021/01/06 09:27:59;;;;;;;46.35;17.63;;;;;;;2.55;100.00;101690.28;4957466;28;20398;-78
2021/01/06 09:30:31;;;;;;;45.40;18.65;;;;;;;2.55;100.00;101698.25;4957499;29;20059;-78
2021/01/06 09:33:00;;;;;;;46.13;18.48;;;;;;;2.54;100.00;101696.53;4957802;28;20063;-78
2021/01/06 09:35:30;;;;;;;49.38;19.92;;;;;;;2.51;100.00;101696.75;4957889;28;20098;-78
2021/01/06 09:38:03;;;;;;;46.80;19.20;;;;;;;2.53;100.00;101707.25;4957922;28;20028;-78
2021/01/06 09:40:31;;;;;;;48.85;19.60;;;;;;;2.47;100.00;101702.34;4957324;28;20038;-79
2021/01/06 09:43:01;;;;;;;43.28;18.02;;;;;;;2.49;100.00;101703.94;4955747;28;20132;-79
2021/01/06 09:45:28;;;;;;;48.15;18.67;;;;;;;2.49;100.00;101705.72;4955212;28;20085;-77
2021/01/06 09:47:59;;;;;;;46.60;17.85;;;;;;;2.51;100.00;101706.47;4969752;28;20035;-78
2021/01/06 09:50:34;;;;;;;48.92;20.23;;;;;;;2.49;100.00;101708.38;4955808;28;20027;-82
2021/01/06 09:53:03;;;;;;;50.42;19.13;;;;;;;2.51;100.00;101702.06;4955225;28;20031;-79
2021/01/06 09:55:29;;;;;;;51.38;19.33;;;;;;;2.51;100.00;101704.69;4954152;28;20580;-79
2021/01/06 09:58:05;;;;;;;53.97;20.42;;;;;;;2.49;100.00;101706.56;4969048;28;20035;-79
2021/01/06 10:00:50;;;;;;;51.47;19.85;;;;;;;2.52;100.00;101697.59;4954955;28;20102;-79
2021/01/06 10:03:16;;;;;;;48.25;19.13;;;;;;;2.50;100.00;101699.47;4955478;28;20039;-79
2021/01/06 10:05:59;;;;;;;53.80;20.15;;;;;;;2.54;100.00;101701.84;4954811;28;20153;-79
2021/01/06 10:08:33;;;;;;;61.13;21.55;;;;;;;2.52;100.00;101694.94;4952643;29;20545;-79
2021/01/06 10:11:12;;;;;;;54.40;19.83;;;;;;;2.54;100.00;101698.34;4954011;28;20027;-80
2021/01/06 10:13:56;;;;;;;48.88;20.38;;;;;;;2.52;100.00;101689.66;4954333;28;20046;-79
2021/01/06 10:16:31;;;;;;;57.93;19.17;;;;;;;2.55;100.00;101692.09;4953526;28;20396;-79
2021/01/06 10:19:10;;;;;;;42.63;17.80;;;;;;;2.54;100.00;101693.06;4968383;28;20291;-79
2021/01/06 10:21:57;;;;;;;48.28;18.27;;;;;;;2.54;100.00;101698.34;4956689;29;20540;-80
2021/01/06 10:24:39;;;;;;;47.78;18.13;;;;;;;2.52;100.00;101690.50;4954924;28;20039;-79
2021/01/06 10:27:14;;;;;;;47.08;18.80;;;;;;;2.55;100.00;101697.41;4952832;28;20035;-80
2021/01/06 10:29:46;;;;;;;56.47;21.88;;;;;;;2.54;100.00;101693.06;4951887;28;20046;-80
2021/01/06 10:32:12;;;;;;;53.20;19.70;;;;;;;2.52;100.00;101693.16;4967795;28;20066;-77
2021/01/06 10:34:44;;;;;;;49.03;19.42;;;;;;;2.55;100.00;101690.28;4951737;28;20077;-80
2021/01/06 10:37:22;;;;;;;47.70;18.13;;;;;;;2.58;100.00;101692.78;4951251;28;20168;-80
2021/01/06 10:39:52;;;;;;;44.45;18.73;;;;;;;2.59;100.00;101688.31;4955662;28;20047;-79
2021/01/06 10:42:22;;;;;;;42.65;18.25;;;;;;;2.64;100.00;101688.03;4971178;28;20035;-79
2021/01/06 10:44:52;;;;;;;43.25;18.40;;;;;;;2.62;100.00;101679.34;4956012;28;20039;-80
2021/01/06 10:47:26;;;;;;;48.15;18.50;;;;;;;2.65;100.00;101684.44;4956400;28;20511;-79
2021/01/06 10:49:56;;;;;;;54.63;19.33;;;;;;;2.72;100.00;101678.69;4960300;28;20257;-80
2021/01/06 10:52:25;;;;;;;47.83;18.50;;;;;;;2.71;100.00;101684.94;4959557;28;20106;-79
2021/01/06 10:54:50;;;;;;;45.63;18.38;;;;;;;2.72;100.00;101683.97;4959949;28;20038;-79
2021/01/06 10:57:23;;;;;;;43.08;17.77;;;;;;;2.81;100.00;101677.22;4960277;29;20043;-80
2021/01/06 11:00:09;;;;;;;38.35;16.45;;;;;;;2.80;100.00;101686.97;4959573;28;20046;-79
2021/01/06 11:02:37;;;;;;;44.53;18.50;;;;;;;2.84;100.00;101683.19;4947214;29;20449;-80
2021/01/06 11:05:16;;;;;;;39.90;16.40;;;;;;;2.85;100.00;101669.00;4959746;28;20043;-80
2021/01/06 11:08:07;;;;;;;37.30;15.52;;;;;;;2.83;100.00;101673.56;4959463;28;20031;-80
2021/01/06 11:10:33;;;;;;;39.88;15.95;;;;;;;2.87;100.00;101674.22;4961916;28;20408;-79
2021/01/06 11:13:21;;;;;;;37.75;15.15;;;;;;;2.90;100.00;101670.50;4959615;28;20039;-79
2021/01/06 11:16:00;;;;;;;38.22;15.18;;;;;;;2.88;100.00;101673.28;4960090;28;20031;-78
2021/01/06 11:18:26;;;;;;;30.98;13.63;;;;;;;2.91;100.00;101664.25;4960060;29;20059;-80
2021/01/06 11:21:11;;;;;;;33.10;14.00;;;;;;;2.87;100.00;101666.28;4947929;28;20027;-80
2021/01/06 11:23:52;;;;;;;31.05;13.25;;;;;;;2.91;100.00;101661.59;4947565;29;20519;-78
2021/01/06 11:26:20;;;;;;;27.95;12.48;;;;;;;2.92;100.00;101668.63;4959681;28;20078;-79
2021/01/06 11:29:01;;;;;;;29.70;12.85;;;;;;;2.92;100.00;101663.34;4959439;28;20042;-79
2021/01/06 11:31:30;;;;;;;32.70;13.15;;;;;;;2.92;100.00;101660.69;4959380;29;20023;-78
2021/01/06 11:34:19;;;;;;;29.85;13.00;;;;;;;2.91;100.00;101662.47;4960581;28;20118;-79